sensor_id;sensor_type;location;lat;lon;timestamp;P1;durP1;ratioP1;P2;durP2;ratioP2
18796;SDS011;9526;52.612;13.300;2024-03-29T00:01:57;1.52;;;0.70;;
18796;SDS011;9526;52.612;13.300;2024-03-29T00:04:19;0.95;;;0.80;;
18796;SDS011;9526;52.612;13.300;2024-03-29T00:06:41;4.03;;;0.52;;
18796;SDS011;9526;52.612;13.300;2024-03-29T00:09:02;3.03;;;0.70;;
18796;SDS011;9526;52.612;13.300;2024-03-29T00:11:24;2.15;;;0.60;;
18796;SDS011;9526;52.612;13.300;2024-03-29T00:13:47;4.78;;;0.80;;
18796;SDS011;9526;52.612;13.300;2024-03-29T00:16:09;4.20;;;1.00;;
18796;SDS011;9526;52.612;13.300;2024-03-29T00:18:30;2.58;;;0.60;;
18796;SDS011;9526;52.612;13.300;2024-03-29T00:20:52;2.58;;;0.60;;
18796;SDS011;9526;52.612;13.300;2024-03-29T00:23:14;3.67;;;0.68;;
18796;SDS011;9526;52.612;13.300;2024-03-29T00:25:35;2.75;;;1.00;;
18796;SDS011;9526;52.612;13.300;2024-03-29T00:27:58;2.88;;;0.85;;
18796;SDS011;9526;52.612;13.300;2024-03-29T00:30:21;3.47;;;0.82;;
18796;SDS011;9526;52.612;13.300;2024-03-29T00:32:43;1.65;;;0.73;;
18796;SDS011;9526;52.612;13.300;2024-03-29T00:35:05;2.05;;;0.73;;
18796;SDS011;9526;52.612;13.300;2024-03-29T00:37:27;1.60;;;0.80;;
18796;SDS011;9526;52.612;13.300;2024-03-29T00:39:49;2.58;;;0.68;;
18796;SDS011;9526;52.612;13.300;2024-03-29T00:42:11;1.50;;;0.70;;
18796;SDS011;9526;52.612;13.300;2024-03-29T00:44:33;5.47;;;0.80;;
18796;SDS011;9526;52.612;13.300;2024-03-29T00:46:56;4.15;;;0.75;;
18796;SDS011;9526;52.612;13.300;2024-03-29T00:49:17;3.25;;;0.80;;
18796;SDS011;9526;52.612;13.300;2024-03-29T00:51:39;2.05;;;0.63;;
18796;SDS011;9526;52.612;13.300;2024-03-29T00:54:01;2.05;;;0.60;;
18796;SDS011;9526;52.612;13.300;2024-03-29T00:56:23;1.50;;;0.70;;
18796;SDS011;9526;52.612;13.300;2024-03-29T00:58:45;3.30;;;0.55;;
18796;SDS011;9526;52.612;13.300;2024-03-29T01:01:07;0.82;;;0.60;;
18796;SDS011;9526;52.612;13.300;2024-03-29T01:03:30;3.30;;;1.00;;
18796;SDS011;9526;52.612;13.300;2024-03-29T01:05:52;0.70;;;0.65;;
18796;SDS011;9526;52.612;13.300;2024-03-29T01:08:13;2.28;;;0.90;;
18796;SDS011;9526;52.612;13.300;2024-03-29T01:10:35;2.53;;;0.80;;
18796;SDS011;9526;52.612;13.300;2024-03-29T01:12:57;3.03;;;0.88;;
18796;SDS011;9526;52.612;13.300;2024-03-29T01:15:18;2.47;;;1.10;;
18796;SDS011;9526;52.612;13.300;2024-03-29T01:17:40;2.25;;;1.05;;
18796;SDS011;9526;52.612;13.300;2024-03-29T01:20:03;3.13;;;1.10;;
18796;SDS011;9526;52.612;13.300;2024-03-29T01:22:26;1.85;;;1.00;;
18796;SDS011;9526;52.612;13.300;2024-03-29T01:24:48;2.20;;;1.00;;
18796;SDS011;9526;52.612;13.300;2024-03-29T01:27:10;4.32;;;0.90;;
18796;SDS011;9526;52.612;13.300;2024-03-29T01:29:31;2.42;;;0.93;;
18796;SDS011;9526;52.612;13.300;2024-03-29T01:31:53;3.03;;;0.70;;
18796;SDS011;9526;52.612;13.300;2024-03-29T01:34:15;3.13;;;1.00;;
18796;SDS011;9526;52.612;13.300;2024-03-29T01:36:38;1.20;;;0.80;;
18796;SDS011;9526;52.612;13.300;2024-03-29T01:39:00;1.17;;;0.80;;
18796;SDS011;9526;52.612;13.300;2024-03-29T01:41:22;1.45;;;0.85;;
18796;SDS011;9526;52.612;13.300;2024-03-29T01:43:43;3.47;;;1.00;;
18796;SDS011;9526;52.612;13.300;2024-03-29T01:46:06;1.83;;;0.90;;
18796;SDS011;9526;52.612;13.300;2024-03-29T01:48:29;3.97;;;1.13;;
18796;SDS011;9526;52.612;13.300;2024-03-29T01:50:53;2.28;;;0.98;;
18796;SDS011;9526;52.612;13.300;2024-03-29T01:53:19;2.05;;;0.80;;
18796;SDS011;9526;52.612;13.300;2024-03-29T01:55:42;2.38;;;0.75;;
18796;SDS011;9526;52.612;13.300;2024-03-29T01:58:05;1.38;;;1.02;;
18796;SDS011;9526;52.612;13.300;2024-03-29T02:00:30;2.47;;;1.05;;
18796;SDS011;9526;52.612;13.300;2024-03-29T02:02:56;2.03;;;1.00;;
18796;SDS011;9526;52.612;13.300;2024-03-29T02:05:19;3.63;;;1.33;;
18796;SDS011;9526;52.612;13.300;2024-03-29T02:07:42;3.90;;;1.23;;
18796;SDS011;9526;52.612;13.300;2024-03-29T02:10:09;2.65;;;1.10;;
18796;SDS011;9526;52.612;13.300;2024-03-29T02:12:33;2.53;;;1.00;;
18796;SDS011;9526;52.612;13.300;2024-03-29T02:14:56;1.92;;;1.15;;
18796;SDS011;9526;52.612;13.300;2024-03-29T02:17:20;4.57;;;1.30;;
18796;SDS011;9526;52.612;13.300;2024-03-29T02:19:43;3.95;;;1.10;;
18796;SDS011;9526;52.612;13.300;2024-03-29T02:22:06;1.73;;;1.15;;
18796;SDS011;9526;52.612;13.300;2024-03-29T02:24:33;3.70;;;1.20;;
18796;SDS011;9526;52.612;13.300;2024-03-29T02:26:56;4.83;;;1.33;;
18796;SDS011;9526;52.612;13.300;2024-03-29T02:29:18;1.03;;;0.93;;
18796;SDS011;9526;52.612;13.300;2024-03-29T02:31:41;2.42;;;1.17;;
18796;SDS011;9526;52.612;13.300;2024-03-29T02:34:04;2.45;;;1.45;;
18796;SDS011;9526;52.612;13.300;2024-03-29T02:36:28;4.17;;;1.50;;
18796;SDS011;9526;52.612;13.300;2024-03-29T02:38:51;6.07;;;1.50;;
18796;SDS011;9526;52.612;13.300;2024-03-29T02:41:15;2.40;;;1.13;;
18796;SDS011;9526;52.612;13.300;2024-03-29T02:43:38;2.08;;;1.23;;
18796;SDS011;9526;52.612;13.300;2024-03-29T02:46:00;3.07;;;1.30;;
18796;SDS011;9526;52.612;13.300;2024-03-29T02:48:23;2.95;;;1.50;;
18796;SDS011;9526;52.612;13.300;2024-03-29T02:50:45;3.05;;;1.50;;
18796;SDS011;9526;52.612;13.300;2024-03-29T02:53:07;3.20;;;1.40;;
18796;SDS011;9526;52.612;13.300;2024-03-29T02:55:30;2.38;;;1.27;;
18796;SDS011;9526;52.612;13.300;2024-03-29T02:57:53;2.53;;;1.38;;
18796;SDS011;9526;52.612;13.300;2024-03-29T03:00:16;2.30;;;1.40;;
18796;SDS011;9526;52.612;13.300;2024-03-29T03:02:38;2.07;;;1.43;;
18796;SDS011;9526;52.612;13.300;2024-03-29T03:05:01;5.13;;;1.63;;
18796;SDS011;9526;52.612;13.300;2024-03-29T03:07:23;2.80;;;1.80;;
18796;SDS011;9526;52.612;13.300;2024-03-29T03:10:03;1.70;;;1.30;;
18796;SDS011;9526;52.612;13.300;2024-03-29T03:12:44;3.03;;;1.80;;
18796;SDS011;9526;52.612;13.300;2024-03-29T03:15:08;4.50;;;1.42;;
18796;SDS011;9526;52.612;13.300;2024-03-29T03:17:31;2.53;;;1.50;;
18796;SDS011;9526;52.612;13.300;2024-03-29T03:19:54;4.23;;;1.60;;
18796;SDS011;9526;52.612;13.300;2024-03-29T03:22:15;5.23;;;1.83;;
18796;SDS011;9526;52.612;13.300;2024-03-29T03:24:38;3.37;;;1.50;;
18796;SDS011;9526;52.612;13.300;2024-03-29T03:27:00;7.70;;;1.67;;
18796;SDS011;9526;52.612;13.300;2024-03-29T03:29:22;2.67;;;1.60;;
18796;SDS011;9526;52.612;13.300;2024-03-29T03:31:46;2.30;;;1.60;;
18796;SDS011;9526;52.612;13.300;2024-03-29T03:34:08;4.33;;;1.80;;
18796;SDS011;9526;52.612;13.300;2024-03-29T03:36:31;5.10;;;1.70;;
18796;SDS011;9526;52.612;13.300;2024-03-29T03:38:52;5.03;;;1.90;;
18796;SDS011;9526;52.612;13.300;2024-03-29T03:41:16;2.50;;;1.60;;
18796;SDS011;9526;52.612;13.300;2024-03-29T03:43:37;3.97;;;1.83;;
18796;SDS011;9526;52.612;13.300;2024-03-29T03:46:00;5.23;;;1.87;;
18796;SDS011;9526;52.612;13.300;2024-03-29T03:48:24;3.30;;;1.70;;
18796;SDS011;9526;52.612;13.300;2024-03-29T03:50:47;2.53;;;1.50;;
18796;SDS011;9526;52.612;13.300;2024-03-29T03:53:08;2.80;;;1.80;;
18796;SDS011;9526;52.612;13.300;2024-03-29T03:55:34;4.00;;;1.93;;
18796;SDS011;9526;52.612;13.300;2024-03-29T03:57:57;3.63;;;1.90;;
18796;SDS011;9526;52.612;13.300;2024-03-29T04:00:20;6.27;;;1.90;;
18796;SDS011;9526;52.612;13.300;2024-03-29T04:02:46;5.17;;;1.83;;
18796;SDS011;9526;52.612;13.300;2024-03-29T04:05:11;3.13;;;1.63;;
18796;SDS011;9526;52.612;13.300;2024-03-29T04:07:33;4.50;;;2.03;;
18796;SDS011;9526;52.612;13.300;2024-03-29T04:09:56;3.77;;;2.07;;
18796;SDS011;9526;52.612;13.300;2024-03-29T04:12:18;5.47;;;1.97;;
18796;SDS011;9526;52.612;13.300;2024-03-29T04:14:40;3.23;;;1.60;;
18796;SDS011;9526;52.612;13.300;2024-03-29T04:17:03;2.87;;;1.60;;
18796;SDS011;9526;52.612;13.300;2024-03-29T04:19:25;6.00;;;1.87;;
18796;SDS011;9526;52.612;13.300;2024-03-29T04:21:49;4.20;;;2.20;;
18796;SDS011;9526;52.612;13.300;2024-03-29T04:24:11;4.77;;;2.10;;
18796;SDS011;9526;52.612;13.300;2024-03-29T04:26:33;5.13;;;2.20;;
18796;SDS011;9526;52.612;13.300;2024-03-29T04:28:55;3.80;;;2.10;;
18796;SDS011;9526;52.612;13.300;2024-03-29T04:31:18;4.03;;;2.03;;
18796;SDS011;9526;52.612;13.300;2024-03-29T04:33:39;4.93;;;2.00;;
18796;SDS011;9526;52.612;13.300;2024-03-29T04:36:02;5.00;;;1.90;;
18796;SDS011;9526;52.612;13.300;2024-03-29T04:38:27;3.90;;;2.13;;
18796;SDS011;9526;52.612;13.300;2024-03-29T04:40:50;4.90;;;2.27;;
18796;SDS011;9526;52.612;13.300;2024-03-29T04:43:15;3.23;;;2.10;;
18796;SDS011;9526;52.612;13.300;2024-03-29T04:45:37;4.73;;;1.93;;
18796;SDS011;9526;52.612;13.300;2024-03-29T04:47:59;4.63;;;2.47;;
18796;SDS011;9526;52.612;13.300;2024-03-29T04:50:22;4.80;;;2.13;;
18796;SDS011;9526;52.612;13.300;2024-03-29T04:52:44;4.87;;;2.30;;
18796;SDS011;9526;52.612;13.300;2024-03-29T04:55:08;6.53;;;2.43;;
18796;SDS011;9526;52.612;13.300;2024-03-29T04:57:31;5.73;;;2.03;;
18796;SDS011;9526;52.612;13.300;2024-03-29T04:59:54;3.63;;;2.07;;
18796;SDS011;9526;52.612;13.300;2024-03-29T05:02:17;2.63;;;1.70;;
18796;SDS011;9526;52.612;13.300;2024-03-29T05:04:39;2.70;;;1.70;;
18796;SDS011;9526;52.612;13.300;2024-03-29T05:07:03;5.83;;;2.33;;
18796;SDS011;9526;52.612;13.300;2024-03-29T05:09:26;6.03;;;1.80;;
18796;SDS011;9526;52.612;13.300;2024-03-29T05:11:50;4.80;;;1.87;;
18796;SDS011;9526;52.612;13.300;2024-03-29T05:14:13;4.93;;;1.60;;
18796;SDS011;9526;52.612;13.300;2024-03-29T05:16:37;5.47;;;1.60;;
18796;SDS011;9526;52.612;13.300;2024-03-29T05:19:00;4.53;;;2.23;;
18796;SDS011;9526;52.612;13.300;2024-03-29T05:21:22;4.23;;;1.73;;
18796;SDS011;9526;52.612;13.300;2024-03-29T05:23:45;3.33;;;1.50;;
18796;SDS011;9526;52.612;13.300;2024-03-29T05:26:08;6.13;;;1.53;;
18796;SDS011;9526;52.612;13.300;2024-03-29T05:28:32;4.13;;;1.40;;
18796;SDS011;9526;52.612;13.300;2024-03-29T05:30:54;5.33;;;1.60;;
18796;SDS011;9526;52.612;13.300;2024-03-29T05:33:17;2.80;;;1.40;;
18796;SDS011;9526;52.612;13.300;2024-03-29T05:35:40;4.80;;;1.73;;
18796;SDS011;9526;52.612;13.300;2024-03-29T05:38:03;4.73;;;1.40;;
18796;SDS011;9526;52.612;13.300;2024-03-29T05:40:26;2.00;;;1.33;;
18796;SDS011;9526;52.612;13.300;2024-03-29T05:42:48;3.43;;;1.67;;
18796;SDS011;9526;52.612;13.300;2024-03-29T05:45:22;2.20;;;1.33;;
18796;SDS011;9526;52.612;13.300;2024-03-29T05:47:47;4.40;;;1.30;;
18796;SDS011;9526;52.612;13.300;2024-03-29T05:50:09;3.03;;;1.20;;
18796;SDS011;9526;52.612;13.300;2024-03-29T05:52:32;4.87;;;1.37;;
18796;SDS011;9526;52.612;13.300;2024-03-29T05:54:55;4.20;;;1.33;;
18796;SDS011;9526;52.612;13.300;2024-03-29T05:57:17;2.90;;;1.20;;
18796;SDS011;9526;52.612;13.300;2024-03-29T05:59:40;3.30;;;1.30;;
18796;SDS011;9526;52.612;13.300;2024-03-29T06:02:04;2.73;;;1.40;;
18796;SDS011;9526;52.612;13.300;2024-03-29T06:04:27;1.53;;;1.17;;
18796;SDS011;9526;52.612;13.300;2024-03-29T06:06:52;3.63;;;1.37;;
18796;SDS011;9526;52.612;13.300;2024-03-29T06:09:15;3.30;;;1.38;;
18796;SDS011;9526;52.612;13.300;2024-03-29T06:11:38;3.42;;;1.60;;
18796;SDS011;9526;52.612;13.300;2024-03-29T06:14:01;3.63;;;1.23;;
18796;SDS011;9526;52.612;13.300;2024-03-29T06:16:40;2.43;;;1.47;;
18796;SDS011;9526;52.612;13.300;2024-03-29T06:19:21;2.67;;;1.40;;
18796;SDS011;9526;52.612;13.300;2024-03-29T06:21:44;2.57;;;1.23;;
18796;SDS011;9526;52.612;13.300;2024-03-29T06:24:07;1.88;;;1.20;;
18796;SDS011;9526;52.612;13.300;2024-03-29T06:26:32;2.38;;;1.27;;
18796;SDS011;9526;52.612;13.300;2024-03-29T06:28:55;3.67;;;1.30;;
18796;SDS011;9526;52.612;13.300;2024-03-29T06:31:18;5.00;;;1.15;;
18796;SDS011;9526;52.612;13.300;2024-03-29T06:33:41;3.15;;;1.40;;
18796;SDS011;9526;52.612;13.300;2024-03-29T06:36:05;3.92;;;1.20;;
18796;SDS011;9526;52.612;13.300;2024-03-29T06:38:28;4.43;;;1.20;;
18796;SDS011;9526;52.612;13.300;2024-03-29T06:40:51;2.65;;;1.50;;
18796;SDS011;9526;52.612;13.300;2024-03-29T06:43:14;3.13;;;0.95;;
18796;SDS011;9526;52.612;13.300;2024-03-29T06:45:39;2.03;;;1.30;;
18796;SDS011;9526;52.612;13.300;2024-03-29T06:48:03;3.20;;;1.20;;
18796;SDS011;9526;52.612;13.300;2024-03-29T06:50:26;4.38;;;1.30;;
18796;SDS011;9526;52.612;13.300;2024-03-29T06:52:51;2.13;;;1.13;;
18796;SDS011;9526;52.612;13.300;2024-03-29T06:55:13;2.95;;;1.20;;
18796;SDS011;9526;52.612;13.300;2024-03-29T06:57:38;1.50;;;0.95;;
18796;SDS011;9526;52.612;13.300;2024-03-29T07:00:01;3.20;;;1.00;;
18796;SDS011;9526;52.612;13.300;2024-03-29T07:02:25;2.90;;;1.17;;
18796;SDS011;9526;52.612;13.300;2024-03-29T07:04:47;1.67;;;0.93;;
18796;SDS011;9526;52.612;13.300;2024-03-29T07:07:10;1.90;;;1.00;;
18796;SDS011;9526;52.612;13.300;2024-03-29T07:09:34;3.10;;;1.23;;
18796;SDS011;9526;52.612;13.300;2024-03-29T07:11:57;4.30;;;1.30;;
18796;SDS011;9526;52.612;13.300;2024-03-29T07:14:19;3.88;;;1.20;;
18796;SDS011;9526;52.612;13.300;2024-03-29T07:16:44;2.28;;;1.10;;
18796;SDS011;9526;52.612;13.300;2024-03-29T07:19:07;4.35;;;1.60;;
18796;SDS011;9526;52.612;13.300;2024-03-29T07:21:33;5.18;;;1.65;;
18796;SDS011;9526;52.612;13.300;2024-03-29T07:23:55;5.57;;;1.88;;
18796;SDS011;9526;52.612;13.300;2024-03-29T07:26:19;5.32;;;1.88;;
18796;SDS011;9526;52.612;13.300;2024-03-29T07:28:42;4.50;;;1.63;;
18796;SDS011;9526;52.612;13.300;2024-03-29T07:31:05;6.88;;;1.95;;
18796;SDS011;9526;52.612;13.300;2024-03-29T07:33:28;4.47;;;2.17;;
18796;SDS011;9526;52.612;13.300;2024-03-29T07:35:50;7.50;;;2.10;;
18796;SDS011;9526;52.612;13.300;2024-03-29T07:38:13;6.10;;;2.30;;
18796;SDS011;9526;52.612;13.300;2024-03-29T07:40:37;10.20;;;1.80;;
18796;SDS011;9526;52.612;13.300;2024-03-29T07:43:01;3.25;;;1.30;;
18796;SDS011;9526;52.612;13.300;2024-03-29T07:45:24;4.45;;;1.20;;
18796;SDS011;9526;52.612;13.300;2024-03-29T07:47:47;3.60;;;1.10;;
18796;SDS011;9526;52.612;13.300;2024-03-29T07:50:13;2.70;;;1.05;;
18796;SDS011;9526;52.612;13.300;2024-03-29T07:52:36;2.28;;;1.10;;
18796;SDS011;9526;52.612;13.300;2024-03-29T07:54:59;2.88;;;1.08;;
18796;SDS011;9526;52.612;13.300;2024-03-29T07:57:22;0.70;;;0.63;;
18796;SDS011;9526;52.612;13.300;2024-03-29T07:59:46;3.92;;;1.10;;
18796;SDS011;9526;52.612;13.300;2024-03-29T08:02:08;2.08;;;1.00;;
18796;SDS011;9526;52.612;13.300;2024-03-29T08:04:31;2.22;;;0.95;;
18796;SDS011;9526;52.612;13.300;2024-03-29T08:06:54;5.25;;;1.20;;
18796;SDS011;9526;52.612;13.300;2024-03-29T08:09:16;1.50;;;0.90;;
18796;SDS011;9526;52.612;13.300;2024-03-29T08:11:39;2.50;;;1.10;;
18796;SDS011;9526;52.612;13.300;2024-03-29T08:14:02;2.55;;;1.00;;
18796;SDS011;9526;52.612;13.300;2024-03-29T08:16:26;4.78;;;1.20;;
18796;SDS011;9526;52.612;13.300;2024-03-29T08:18:48;4.38;;;0.90;;
18796;SDS011;9526;52.612;13.300;2024-03-29T08:21:11;3.47;;;1.15;;
18796;SDS011;9526;52.612;13.300;2024-03-29T08:23:42;2.85;;;1.00;;
18796;SDS011;9526;52.612;13.300;2024-03-29T08:26:07;1.55;;;0.88;;
18796;SDS011;9526;52.612;13.300;2024-03-29T08:28:30;1.45;;;0.73;;
18796;SDS011;9526;52.612;13.300;2024-03-29T08:30:58;4.53;;;0.90;;
18796;SDS011;9526;52.612;13.300;2024-03-29T08:33:22;4.50;;;1.00;;
18796;SDS011;9526;52.612;13.300;2024-03-29T08:35:45;4.97;;;1.10;;
18796;SDS011;9526;52.612;13.300;2024-03-29T08:38:08;3.58;;;0.90;;
18796;SDS011;9526;52.612;13.300;2024-03-29T08:40:31;3.10;;;0.80;;
18796;SDS011;9526;52.612;13.300;2024-03-29T08:42:54;3.08;;;1.00;;
18796;SDS011;9526;52.612;13.300;2024-03-29T08:45:17;1.95;;;0.88;;
18796;SDS011;9526;52.612;13.300;2024-03-29T08:47:40;2.15;;;0.80;;
18796;SDS011;9526;52.612;13.300;2024-03-29T08:50:05;3.50;;;0.93;;
18796;SDS011;9526;52.612;13.300;2024-03-29T08:52:28;1.75;;;0.95;;
18796;SDS011;9526;52.612;13.300;2024-03-29T08:54:50;2.67;;;1.15;;
18796;SDS011;9526;52.612;13.300;2024-03-29T08:57:13;1.58;;;1.00;;
18796;SDS011;9526;52.612;13.300;2024-03-29T08:59:36;3.08;;;0.90;;
18796;SDS011;9526;52.612;13.300;2024-03-29T09:02:03;2.95;;;1.10;;
18796;SDS011;9526;52.612;13.300;2024-03-29T09:04:27;2.47;;;1.00;;
18796;SDS011;9526;52.612;13.300;2024-03-29T09:06:52;4.32;;;1.23;;
18796;SDS011;9526;52.612;13.300;2024-03-29T09:09:15;3.90;;;1.00;;
18796;SDS011;9526;52.612;13.300;2024-03-29T09:11:38;2.17;;;1.02;;
18796;SDS011;9526;52.612;13.300;2024-03-29T09:14:01;1.67;;;0.90;;
18796;SDS011;9526;52.612;13.300;2024-03-29T09:16:25;1.70;;;0.70;;
18796;SDS011;9526;52.612;13.300;2024-03-29T09:18:48;2.60;;;0.98;;
18796;SDS011;9526;52.612;13.300;2024-03-29T09:21:12;1.15;;;0.80;;
18796;SDS011;9526;52.612;13.300;2024-03-29T09:23:36;2.55;;;0.77;;
18796;SDS011;9526;52.612;13.300;2024-03-29T09:26:04;2.58;;;0.95;;
18796;SDS011;9526;52.612;13.300;2024-03-29T09:28:27;3.40;;;1.05;;
18796;SDS011;9526;52.612;13.300;2024-03-29T09:30:49;1.65;;;0.88;;
18796;SDS011;9526;52.612;13.300;2024-03-29T09:33:19;3.83;;;0.90;;
18796;SDS011;9526;52.612;13.300;2024-03-29T09:35:41;4.20;;;1.10;;
18796;SDS011;9526;52.612;13.300;2024-03-29T09:38:04;2.03;;;1.15;;
18796;SDS011;9526;52.612;13.300;2024-03-29T09:40:28;2.90;;;1.00;;
18796;SDS011;9526;52.612;13.300;2024-03-29T09:42:52;2.90;;;1.05;;
18796;SDS011;9526;52.612;13.300;2024-03-29T09:45:18;3.90;;;0.80;;
18796;SDS011;9526;52.612;13.300;2024-03-29T09:47:42;2.00;;;1.00;;
18796;SDS011;9526;52.612;13.300;2024-03-29T09:50:06;1.75;;;1.00;;
18796;SDS011;9526;52.612;13.300;2024-03-29T09:52:31;6.90;;;1.33;;
18796;SDS011;9526;52.612;13.300;2024-03-29T09:54:55;2.30;;;1.10;;
18796;SDS011;9526;52.612;13.300;2024-03-29T09:57:19;1.73;;;0.90;;
18796;SDS011;9526;52.612;13.300;2024-03-29T09:59:42;1.85;;;1.02;;
18796;SDS011;9526;52.612;13.300;2024-03-29T10:02:10;3.58;;;0.88;;
18796;SDS011;9526;52.612;13.300;2024-03-29T10:04:37;2.85;;;1.00;;
18796;SDS011;9526;52.612;13.300;2024-03-29T10:07:00;1.70;;;0.80;;
18796;SDS011;9526;52.612;13.300;2024-03-29T10:09:23;2.75;;;1.10;;
18796;SDS011;9526;52.612;13.300;2024-03-29T10:11:50;1.35;;;0.77;;
18796;SDS011;9526;52.612;13.300;2024-03-29T10:14:14;2.20;;;1.00;;
18796;SDS011;9526;52.612;13.300;2024-03-29T10:16:37;5.40;;;1.00;;
18796;SDS011;9526;52.612;13.300;2024-03-29T10:18:59;2.47;;;1.10;;
18796;SDS011;9526;52.612;13.300;2024-03-29T10:21:24;7.53;;;0.88;;
18796;SDS011;9526;52.612;13.300;2024-03-29T10:23:48;1.52;;;0.85;;
18796;SDS011;9526;52.612;13.300;2024-03-29T10:26:09;2.08;;;0.80;;
18796;SDS011;9526;52.612;13.300;2024-03-29T10:28:33;2.25;;;0.90;;
18796;SDS011;9526;52.612;13.300;2024-03-29T10:30:59;1.70;;;0.93;;
18796;SDS011;9526;52.612;13.300;2024-03-29T10:33:27;2.63;;;0.95;;
18796;SDS011;9526;52.612;13.300;2024-03-29T10:35:50;1.40;;;0.73;;
18796;SDS011;9526;52.612;13.300;2024-03-29T10:38:16;3.92;;;1.05;;
18796;SDS011;9526;52.612;13.300;2024-03-29T10:40:39;1.63;;;0.70;;
18796;SDS011;9526;52.612;13.300;2024-03-29T10:43:03;0.70;;;0.70;;
18796;SDS011;9526;52.612;13.300;2024-03-29T10:45:30;1.70;;;0.90;;
18796;SDS011;9526;52.612;13.300;2024-03-29T10:47:54;2.03;;;1.00;;
18796;SDS011;9526;52.612;13.300;2024-03-29T10:50:17;2.53;;;0.90;;
18796;SDS011;9526;52.612;13.300;2024-03-29T10:52:43;2.00;;;1.00;;
18796;SDS011;9526;52.612;13.300;2024-03-29T10:55:07;2.72;;;0.90;;
18796;SDS011;9526;52.612;13.300;2024-03-29T10:57:32;3.00;;;0.70;;
18796;SDS011;9526;52.612;13.300;2024-03-29T11:00:01;2.53;;;1.10;;
18796;SDS011;9526;52.612;13.300;2024-03-29T11:02:30;1.48;;;0.82;;
18796;SDS011;9526;52.612;13.300;2024-03-29T11:05:01;2.83;;;0.93;;
18796;SDS011;9526;52.612;13.300;2024-03-29T11:07:28;3.25;;;0.82;;
18796;SDS011;9526;52.612;13.300;2024-03-29T11:09:52;2.35;;;1.00;;
18796;SDS011;9526;52.612;13.300;2024-03-29T11:12:18;3.22;;;1.20;;
18796;SDS011;9526;52.612;13.300;2024-03-29T11:14:45;1.30;;;0.88;;
18796;SDS011;9526;52.612;13.300;2024-03-29T11:17:12;1.33;;;0.68;;
18796;SDS011;9526;52.612;13.300;2024-03-29T11:19:36;2.47;;;0.90;;
18796;SDS011;9526;52.612;13.300;2024-03-29T11:22:00;1.35;;;0.90;;
18796;SDS011;9526;52.612;13.300;2024-03-29T11:24:24;2.05;;;1.00;;
18796;SDS011;9526;52.612;13.300;2024-03-29T11:26:49;2.40;;;0.98;;
18796;SDS011;9526;52.612;13.300;2024-03-29T11:29:17;1.75;;;1.13;;
18796;SDS011;9526;52.612;13.300;2024-03-29T11:31:41;2.22;;;1.00;;
18796;SDS011;9526;52.612;13.300;2024-03-29T11:34:08;1.05;;;0.80;;
18796;SDS011;9526;52.612;13.300;2024-03-29T11:36:31;1.75;;;0.82;;
18796;SDS011;9526;52.612;13.300;2024-03-29T11:38:56;0.68;;;0.63;;
18796;SDS011;9526;52.612;13.300;2024-03-29T11:41:20;0.95;;;0.77;;
18796;SDS011;9526;52.612;13.300;2024-03-29T11:43:44;4.43;;;0.80;;
18796;SDS011;9526;52.612;13.300;2024-03-29T11:46:08;1.40;;;0.82;;
18796;SDS011;9526;52.612;13.300;2024-03-29T11:48:32;1.77;;;0.90;;
18796;SDS011;9526;52.612;13.300;2024-03-29T11:50:56;2.45;;;0.90;;
18796;SDS011;9526;52.612;13.300;2024-03-29T11:53:20;1.70;;;1.10;;
18796;SDS011;9526;52.612;13.300;2024-03-29T11:55:43;2.33;;;0.90;;
18796;SDS011;9526;52.612;13.300;2024-03-29T11:58:06;5.13;;;1.00;;
18796;SDS011;9526;52.612;13.300;2024-03-29T12:00:29;2.95;;;0.98;;
18796;SDS011;9526;52.612;13.300;2024-03-29T12:02:52;2.47;;;0.95;;
18796;SDS011;9526;52.612;13.300;2024-03-29T12:05:14;1.70;;;1.00;;
18796;SDS011;9526;52.612;13.300;2024-03-29T12:07:37;1.73;;;0.90;;
18796;SDS011;9526;52.612;13.300;2024-03-29T12:10:00;1.05;;;0.80;;
18796;SDS011;9526;52.612;13.300;2024-03-29T12:12:24;3.20;;;0.80;;
18796;SDS011;9526;52.612;13.300;2024-03-29T12:14:47;5.18;;;0.98;;
18796;SDS011;9526;52.612;13.300;2024-03-29T12:17:11;1.70;;;0.77;;
18796;SDS011;9526;52.612;13.300;2024-03-29T12:19:33;1.02;;;0.85;;
18796;SDS011;9526;52.612;13.300;2024-03-29T12:21:58;1.83;;;0.80;;
18796;SDS011;9526;52.612;13.300;2024-03-29T12:24:21;1.50;;;0.80;;
18796;SDS011;9526;52.612;13.300;2024-03-29T12:26:43;1.08;;;0.80;;
18796;SDS011;9526;52.612;13.300;2024-03-29T12:29:08;2.45;;;0.80;;
18796;SDS011;9526;52.612;13.300;2024-03-29T12:31:30;1.10;;;1.00;;
18796;SDS011;9526;52.612;13.300;2024-03-29T12:33:53;1.77;;;0.98;;
18796;SDS011;9526;52.612;13.300;2024-03-29T12:36:16;2.92;;;1.13;;
18796;SDS011;9526;52.612;13.300;2024-03-29T12:38:41;1.35;;;0.82;;
18796;SDS011;9526;52.612;13.300;2024-03-29T12:41:05;1.15;;;0.80;;
18796;SDS011;9526;52.612;13.300;2024-03-29T12:43:27;2.13;;;0.80;;
18796;SDS011;9526;52.612;13.300;2024-03-29T12:45:53;2.40;;;1.20;;
18796;SDS011;9526;52.612;13.300;2024-03-29T12:48:16;1.25;;;0.80;;
18796;SDS011;9526;52.612;13.300;2024-03-29T12:50:40;2.25;;;0.80;;
18796;SDS011;9526;52.612;13.300;2024-03-29T12:53:05;4.45;;;1.00;;
18796;SDS011;9526;52.612;13.300;2024-03-29T12:55:29;1.40;;;0.80;;
18796;SDS011;9526;52.612;13.300;2024-03-29T12:57:54;1.40;;;0.82;;
18796;SDS011;9526;52.612;13.300;2024-03-29T13:00:17;2.58;;;1.40;;
18796;SDS011;9526;52.612;13.300;2024-03-29T13:02:42;2.22;;;1.00;;
18796;SDS011;9526;52.612;13.300;2024-03-29T13:05:04;1.35;;;0.75;;
18796;SDS011;9526;52.612;13.300;2024-03-29T13:07:27;1.80;;;0.90;;
18796;SDS011;9526;52.612;13.300;2024-03-29T13:09:50;1.85;;;0.90;;
18796;SDS011;9526;52.612;13.300;2024-03-29T13:12:13;1.88;;;0.75;;
18796;SDS011;9526;52.612;13.300;2024-03-29T13:14:36;2.75;;;1.00;;
18796;SDS011;9526;52.612;13.300;2024-03-29T13:16:58;0.80;;;0.73;;
18796;SDS011;9526;52.612;13.300;2024-03-29T13:19:22;1.73;;;1.10;;
18796;SDS011;9526;52.612;13.300;2024-03-29T13:21:45;1.40;;;0.80;;
18796;SDS011;9526;52.612;13.300;2024-03-29T13:24:07;1.90;;;1.00;;
18796;SDS011;9526;52.612;13.300;2024-03-29T13:26:30;1.73;;;0.98;;
18796;SDS011;9526;52.612;13.300;2024-03-29T13:28:53;2.90;;;1.00;;
18796;SDS011;9526;52.612;13.300;2024-03-29T13:31:16;1.67;;;0.82;;
18796;SDS011;9526;52.612;13.300;2024-03-29T13:33:38;0.60;;;0.60;;
18796;SDS011;9526;52.612;13.300;2024-03-29T13:36:02;1.27;;;0.82;;
18796;SDS011;9526;52.612;13.300;2024-03-29T13:38:25;0.98;;;0.88;;
18796;SDS011;9526;52.612;13.300;2024-03-29T13:40:48;1.25;;;0.73;;
18796;SDS011;9526;52.612;13.300;2024-03-29T13:43:11;2.75;;;1.00;;
18796;SDS011;9526;52.612;13.300;2024-03-29T13:45:34;1.25;;;0.70;;
18796;SDS011;9526;52.612;13.300;2024-03-29T13:47:56;2.15;;;1.13;;
18796;SDS011;9526;52.612;13.300;2024-03-29T13:50:19;3.53;;;1.00;;
18796;SDS011;9526;52.612;13.300;2024-03-29T13:52:43;2.55;;;0.85;;
18796;SDS011;9526;52.612;13.300;2024-03-29T13:55:06;2.33;;;0.90;;
18796;SDS011;9526;52.612;13.300;2024-03-29T13:57:29;1.45;;;0.80;;
18796;SDS011;9526;52.612;13.300;2024-03-29T13:59:52;3.10;;;0.80;;
18796;SDS011;9526;52.612;13.300;2024-03-29T14:02:15;2.17;;;1.00;;
18796;SDS011;9526;52.612;13.300;2024-03-29T14:04:40;1.40;;;0.88;;
18796;SDS011;9526;52.612;13.300;2024-03-29T14:07:03;2.40;;;0.90;;
18796;SDS011;9526;52.612;13.300;2024-03-29T14:09:29;1.10;;;0.80;;
18796;SDS011;9526;52.612;13.300;2024-03-29T14:11:51;4.75;;;1.13;;
18796;SDS011;9526;52.612;13.300;2024-03-29T14:14:14;1.77;;;1.08;;
18796;SDS011;9526;52.612;13.300;2024-03-29T14:16:37;0.85;;;0.80;;
18796;SDS011;9526;52.612;13.300;2024-03-29T14:19:00;2.55;;;0.85;;
18796;SDS011;9526;52.612;13.300;2024-03-29T14:21:23;2.10;;;0.90;;
18796;SDS011;9526;52.612;13.300;2024-03-29T14:23:45;1.55;;;0.85;;
18796;SDS011;9526;52.612;13.300;2024-03-29T14:26:09;2.00;;;0.90;;